Time;durP1;ratioP1;P1;durP2;ratioP2;P2;SDS_P1;SDS_P2;PMS_P1;PMS_P2;Temp;Humidity;BMP_temperature;BMP_pressure;BME280_temperature;BME280_humidity;BME280_pressure;Samples;Min_cycle;Max_cycle;Signal;HPM_P1;HPM_P2
2020/12/08 00:02:23;;;;;;;9.20;6.03;;;6.00;79.70;;;;;;4967554;28;20034;-75
2020/12/08 00:04:49;;;;;;;9.25;6.18;;;6.00;79.70;;;;;;4974073;28;20058;-76
2020/12/08 00:07:14;;;;;;;8.25;5.75;;;6.00;80.30;;;;;;4982347;28;20098;-75
2020/12/08 00:09:40;;;;;;;7.97;5.68;;;5.90;80.30;;;;;;4991821;28;20092;-75
2020/12/08 00:12:06;;;;;;;9.10;5.70;;;5.90;79.70;;;;;;4988936;28;20214;-75
2020/12/08 00:14:32;;;;;;;8.60;5.88;;;5.90;79.70;;;;;;4980117;28;20015;-75
2020/12/08 00:16:58;;;;;;;7.82;5.43;;;5.90;79.70;;;;;;5003821;28;20408;-75
2020/12/08 00:19:24;;;;;;;8.55;5.63;;;5.90;79.70;;;;;;4977642;28;20056;-75
2020/12/08 00:21:50;;;;;;;8.15;5.68;;;5.90;79.70;;;;;;4981887;28;20538;-75
2020/12/08 00:24:16;;;;;;;7.68;5.45;;;5.90;79.70;;;;;;4959962;28;20026;-76
2020/12/08 00:26:42;;;;;;;8.50;5.70;;;5.90;79.70;;;;;;4985379;28;20130;-75
2020/12/08 00:29:11;;;;;;;7.88;5.55;;;5.90;79.70;;;;;;4981306;28;20058;-79
2020/12/08 00:31:37;;;;;;;8.25;5.63;;;5.90;79.70;;;;;;4976070;28;20085;-75
2020/12/08 00:34:04;;;;;;;8.02;5.97;;;5.80;79.70;;;;;;4984110;28;20033;-75
2020/12/08 00:36:30;;;;;;;9.23;6.35;;;5.80;79.70;;;;;;4987708;28;20030;-76
2020/12/08 00:38:56;;;;;;;8.07;5.82;;;5.80;79.70;;;;;;4975418;28;20397;-75
2020/12/08 00:41:23;;;;;;;7.30;5.13;;;5.80;79.70;;;;;;4990297;28;20447;-76
2020/12/08 00:43:50;;;;;;;8.10;5.65;;;5.80;79.70;;;;;;4971107;28;20035;-75
2020/12/08 00:46:18;;;;;;;8.82;6.20;;;5.80;79.70;;;;;;4983291;28;20041;-75
2020/12/08 00:48:44;;;;;;;7.45;5.43;;;5.80;79.70;;;;;;4992687;28;20069;-75
2020/12/08 00:51:11;;;;;;;7.80;5.65;;;5.80;79.80;;;;;;4990207;28;20097;-77
2020/12/08 00:53:37;;;;;;;7.35;5.03;;;5.80;79.80;;;;;;4983441;28;20038;-78
2020/12/08 00:56:11;;;;;;;7.90;5.70;;;5.80;79.80;;;;;;4994575;28;20069;-75
2020/12/08 00:58:38;;;;;;;8.05;5.70;;;5.80;79.80;;;;;;4974731;28;20076;-75
2020/12/08 01:01:06;;;;;;;7.72;5.50;;;5.80;79.80;;;;;;4989046;28;20035;-75
2020/12/08 01:03:36;;;;;;;8.63;5.47;;;5.80;79.90;;;;;;4986046;28;20047;-75
2020/12/08 01:06:02;;;;;;;7.20;5.13;;;5.70;79.80;;;;;;4993655;28;20027;-75
2020/12/08 01:08:31;;;;;;;7.30;5.47;;;5.70;79.70;;;;;;4980898;28;20093;-75
2020/12/08 01:10:57;;;;;;;8.82;6.03;;;5.70;79.80;;;;;;4972177;28;20030;-75
2020/12/08 01:13:27;;;;;;;8.07;5.13;;;5.70;79.70;;;;;;4983104;28;20022;-77
2020/12/08 01:15:54;;;;;;;7.45;5.05;;;5.80;79.80;;;;;;4973307;28;20061;-74
2020/12/08 01:18:20;;;;;;;7.88;5.53;;;5.70;79.80;;;;;;4975551;28;20038;-75
2020/12/08 01:20:46;;;;;;;7.63;5.30;;;5.70;79.80;;;;;;4989156;28;20069;-75
2020/12/08 01:23:12;;;;;;;7.40;5.28;;;5.70;79.80;;;;;;4973760;28;20057;-75
2020/12/08 01:25:38;;;;;;;9.57;5.85;;;5.70;79.80;;;;;;4961663;28;20034;-75
2020/12/08 01:28:04;;;;;;;7.55;5.22;;;5.70;79.90;;;;;;4996921;28;20041;-75
2020/12/08 01:30:31;;;;;;;7.93;5.18;;;5.70;79.80;;;;;;4961638;28;20049;-75
2020/12/08 01:32:57;;;;;;;8.48;6.22;;;5.70;79.90;;;;;;4974521;28;20092;-77
2020/12/08 01:35:25;;;;;;;8.13;5.75;;;5.70;79.80;;;;;;4985538;28;20044;-75
2020/12/08 01:37:58;;;;;;;7.40;5.50;;;5.70;79.90;;;;;;4975003;28;20049;-75
2020/12/08 01:40:24;;;;;;;7.93;5.40;;;5.70;79.90;;;;;;4990722;28;20540;-78
2020/12/08 01:42:50;;;;;;;8.27;5.63;;;5.70;79.90;;;;;;4987420;28;20034;-76
2020/12/08 01:45:16;;;;;;;8.63;5.63;;;5.70;79.90;;;;;;4988336;28;20085;-80
2020/12/08 01:47:43;;;;;;;7.88;5.65;;;5.60;79.90;;;;;;4964612;28;20036;-75
2020/12/08 01:50:11;;;;;;;8.38;5.60;;;5.60;79.90;;;;;;4978108;28;20122;-75
2020/12/08 01:52:37;;;;;;;8.63;5.60;;;5.60;79.80;;;;;;4959152;28;20142;-75
2020/12/08 01:55:06;;;;;;;6.82;4.88;;;5.60;79.90;;;;;;4990021;28;20056;-75
2020/12/08 01:57:37;;;;;;;7.38;5.22;;;5.60;79.90;;;;;;4965412;28;20042;-75
2020/12/08 02:00:07;;;;;;;7.25;5.50;;;5.60;79.90;;;;;;4964626;28;20035;-77
2020/12/08 02:02:40;;;;;;;8.75;5.57;;;5.60;79.90;;;;;;4990313;28;20045;-75
2020/12/08 02:05:10;;;;;;;7.60;5.53;;;5.60;79.90;;;;;;4970610;28;20117;-75
2020/12/08 02:07:45;;;;;;;7.07;4.88;;;5.60;79.90;;;;;;4977460;28;20039;-75
2020/12/08 02:10:12;;;;;;;6.93;5.03;;;5.60;79.90;;;;;;4987785;28;20493;-75
2020/12/08 02:12:38;;;;;;;7.38;4.75;;;5.60;79.90;;;;;;4981866;28;20027;-75
2020/12/08 02:15:04;;;;;;;8.20;5.00;;;5.60;79.90;;;;;;4980304;28;20030;-75
2020/12/08 02:17:34;;;;;;;7.18;5.28;;;5.60;79.90;;;;;;4970490;28;20033;-75
2020/12/08 02:20:00;;;;;;;7.72;5.25;;;5.60;79.90;;;;;;4947516;28;20146;-75
2020/12/08 02:22:27;;;;;;;6.97;5.20;;;5.50;79.90;;;;;;4970090;28;20041;-75
2020/12/08 02:24:53;;;;;;;7.28;4.80;;;5.50;79.80;;;;;;4992118;28;20039;-76
2020/12/08 02:27:20;;;;;;;8.23;5.50;;;5.50;79.80;;;;;;4990660;28;20067;-76
2020/12/08 02:29:49;;;;;;;6.68;4.82;;;5.50;79.90;;;;;;4984718;28;20475;-76
2020/12/08 02:32:15;;;;;;;7.60;4.85;;;5.50;79.80;;;;;;4986249;28;20540;-76
2020/12/08 02:34:41;;;;;;;7.95;5.43;;;5.50;79.90;;;;;;4968569;28;20034;-75
2020/12/08 02:37:07;;;;;;;7.38;5.18;;;5.50;79.80;;;;;;4961668;28;20042;-75
2020/12/08 02:39:42;;;;;;;7.85;5.10;;;5.50;79.80;;;;;;4974414;28;20038;-75
2020/12/08 02:42:09;;;;;;;7.68;5.28;;;5.50;79.90;;;;;;4993421;28;20045;-74
2020/12/08 02:44:35;;;;;;;6.75;5.00;;;5.50;79.80;;;;;;4988678;28;20027;-75
2020/12/08 02:47:00;;;;;;;7.07;5.18;;;5.40;79.80;;;;;;4986682;28;20500;-75
2020/12/08 02:49:26;;;;;;;8.45;5.80;;;5.40;79.80;;;;;;4970604;28;20559;-76
2020/12/08 02:51:56;;;;;;;6.88;4.38;;;5.40;79.80;;;;;;4991581;28;20441;-75
2020/12/08 02:54:24;;;;;;;7.30;4.88;;;5.40;79.80;;;;;;4968475;28;20454;-76
2020/12/08 02:56:51;;;;;;;7.47;5.15;;;5.40;79.80;;;;;;4988457;28;20129;-78
2020/12/08 02:59:26;;;;;;;6.32;5.00;;;5.40;79.80;;;;;;4980736;28;20125;-75
2020/12/08 03:01:57;;;;;;;6.97;4.78;;;5.40;79.90;;;;;;4995512;28;20046;-75
2020/12/08 03:04:26;;;;;;;7.68;5.25;;;5.40;79.80;;;;;;4991445;28;20047;-76
2020/12/08 03:06:53;;;;;;;7.35;5.28;;;5.40;79.80;;;;;;4985477;28;20033;-75
2020/12/08 03:09:18;;;;;;;7.30;4.95;;;5.40;79.80;;;;;;4991670;28;20475;-75
2020/12/08 03:11:44;;;;;;;6.63;4.88;;;5.30;79.70;;;;;;4986340;28;20102;-75
2020/12/08 03:14:17;;;;;;;7.50;5.03;;;5.30;79.80;;;;;;4993345;28;20039;-75
2020/12/08 03:16:44;;;;;;;6.75;4.60;;;5.30;79.70;;;;;;4977722;28;20026;-76
2020/12/08 03:19:10;;;;;;;7.72;5.28;;;5.30;79.70;;;;;;4986641;28;20384;-76
2020/12/08 03:21:38;;;;;;;7.20;4.88;;;5.30;79.80;;;;;;4978508;28;20387;-75
2020/12/08 03:24:14;;;;;;;7.75;4.80;;;5.30;79.80;;;;;;4968375;28;20027;-75
2020/12/08 03:26:41;;;;;;;7.03;4.65;;;5.30;79.80;;;;;;4975924;28;20143;-75
2020/12/08 03:29:06;;;;;;;6.88;4.95;;;5.20;79.80;;;;;;4959296;28;20425;-75
2020/12/08 03:31:33;;;;;;;6.68;4.95;;;5.20;79.70;;;;;;4992812;28;20037;-75
2020/12/08 03:34:02;;;;;;;7.10;5.10;;;5.20;79.70;;;;;;4991229;28;20482;-75
2020/12/08 03:36:28;;;;;;;6.68;4.97;;;5.20;79.90;;;;;;4973221;28;20071;-75
2020/12/08 03:38:53;;;;;;;8.52;5.07;;;5.20;79.80;;;;;;4983505;28;20118;-74
2020/12/08 03:41:24;;;;;;;6.53;4.90;;;5.20;79.80;;;;;;4986344;28;20462;-76
2020/12/08 03:43:58;;;;;;;8.23;5.45;;;5.20;79.80;;;;;;4991320;28;20081;-75
2020/12/08 03:46:27;;;;;;;8.07;4.93;;;5.20;79.80;;;;;;4988517;28;20041;-75
2020/12/08 03:48:54;;;;;;;8.32;5.00;;;5.10;79.70;;;;;;4972713;28;20034;-76
2020/12/08 03:51:22;;;;;;;7.60;4.85;;;5.20;79.80;;;;;;4990007;28;20105;-75
2020/12/08 03:53:48;;;;;;;8.32;5.00;;;5.10;79.80;;;;;;4992806;28;20038;-75
2020/12/08 03:56:17;;;;;;;7.35;4.70;;;5.10;79.70;;;;;;4968874;28;20041;-75
2020/12/08 03:58:45;;;;;;;7.15;5.00;;;5.10;79.70;;;;;;4961615;28;20045;-75
2020/12/08 04:01:20;;;;;;;7.03;4.68;;;5.10;79.70;;;;;;4964657;28;20030;-75
2020/12/08 04:03:47;;;;;;;7.95;5.28;;;5.10;79.80;;;;;;4989751;28;20058;-74
2020/12/08 04:06:14;;;;;;;6.97;4.60;;;5.10;79.70;;;;;;4970698;28;20383;-75
2020/12/08 04:08:41;;;;;;;6.13;4.40;;;5.00;79.70;;;;;;4992477;28;20061;-74
2020/12/08 04:11:08;;;;;;;7.40;5.00;;;5.00;79.70;;;;;;4992192;28;20045;-78
2020/12/08 04:13:34;;;;;;;6.22;4.78;;;5.00;79.70;;;;;;4993024;28;20038;-75
2020/12/08 04:16:00;;;;;;;7.28;5.15;;;5.00;79.70;;;;;;4993667;28;20104;-74
2020/12/08 04:18:26;;;;;;;6.80;4.78;;;5.00;79.70;;;;;;4996464;28;20035;-75
2020/12/08 04:20:52;;;;;;;7.47;4.57;;;5.00;79.80;;;;;;5000860;28;20035;-75
2020/12/08 04:23:19;;;;;;;6.78;4.60;;;5.00;79.70;;;;;;4980276;28;20030;-75
2020/12/08 04:25:46;;;;;;;6.85;4.53;;;5.00;79.70;;;;;;4961267;28;20055;-76
2020/12/08 04:28:14;;;;;;;7.28;4.95;;;5.00;79.70;;;;;;4986035;28;20109;-75
2020/12/08 04:30:40;;;;;;;8.10;4.85;;;5.00;79.70;;;;;;4988839;28;20038;-75
2020/12/08 04:33:08;;;;;;;6.82;4.78;;;4.90;79.70;;;;;;4992695;28;20038;-75
2020/12/08 04:35:34;;;;;;;8.30;4.95;;;4.90;79.60;;;;;;4990017;28;20529;-75
2020/12/08 04:38:00;;;;;;;7.18;4.90;;;4.90;79.70;;;;;;4986322;28;20043;-75
2020/12/08 04:40:26;;;;;;;7.55;4.85;;;4.90;79.70;;;;;;4990197;28;20053;-75
2020/12/08 04:42:54;;;;;;;7.63;5.20;;;4.90;79.70;;;;;;4972752;28;20466;-75
2020/12/08 04:45:21;;;;;;;7.30;4.90;;;4.80;79.60;;;;;;4983939;28;20027;-74
2020/12/08 04:47:47;;;;;;;7.30;4.70;;;4.80;79.60;;;;;;4990259;28;20038;-75
2020/12/08 04:50:15;;;;;;;7.38;5.10;;;4.80;79.70;;;;;;4975188;28;20023;-75
2020/12/08 04:52:42;;;;;;;7.43;4.93;;;4.90;79.70;;;;;;4988087;28;20042;-75
2020/12/08 04:55:08;;;;;;;7.30;4.60;;;4.80;79.70;;;;;;5006508;28;20052;-75
2020/12/08 04:57:34;;;;;;;6.70;4.82;;;4.80;79.60;;;;;;4964554;28;20034;-75
2020/12/08 05:00:08;;;;;;;7.35;4.85;;;4.80;79.70;;;;;;4989363;28;20042;-75
2020/12/08 05:02:46;;;;;;;6.70;4.63;;;4.80;79.70;;;;;;4985150;28;20449;-75
2020/12/08 05:05:12;;;;;;;7.45;5.10;;;4.80;79.70;;;;;;5005475;28;20289;-74
2020/12/08 05:07:38;;;;;;;7.55;5.18;;;4.70;79.60;;;;;;4971204;28;20027;-75
2020/12/08 05:10:04;;;;;;;7.18;5.07;;;4.70;79.60;;;;;;4988484;28;20031;-74
2020/12/08 05:12:29;;;;;;;7.13;5.05;;;4.70;79.60;;;;;;4975132;28;20368;-76
2020/12/08 05:14:55;;;;;;;7.70;5.05;;;4.70;79.60;;;;;;4960010;28;20122;-75
2020/12/08 05:17:22;;;;;;;7.60;5.43;;;4.70;79.60;;;;;;4972252;28;20058;-75
2020/12/08 05:20:00;;;;;;;7.90;5.47;;;4.70;79.70;;;;;;4977992;28;20039;-75
2020/12/08 05:22:26;;;;;;;7.47;5.30;;;4.70;79.70;;;;;;4990650;28;20109;-79
2020/12/08 05:24:51;;;;;;;7.88;5.32;;;4.70;79.70;;;;;;4971877;28;20109;-75
2020/12/08 05:27:19;;;;;;;7.32;5.60;;;4.70;79.70;;;;;;4982729;28;20047;-76
2020/12/08 05:29:45;;;;;;;7.45;4.95;;;4.70;79.70;;;;;;4979535;28;20026;-76
2020/12/08 05:32:35;;;;;;;8.38;5.57;;;4.70;79.70;;;;;;4973805;28;20031;-75
2020/12/08 05:35:04;;;;;;;7.97;5.13;;;4.70;79.80;;;;;;4978287;28;20109;-76
2020/12/08 05:37:34;;;;;;;8.25;5.60;;;4.70;79.70;;;;;;4984597;28;20058;-77
2020/12/08 05:40:04;;;;;;;6.25;4.68;;;4.60;79.70;;;;;;4963151;28;20026;-75
2020/12/08 05:42:33;;;;;;;8.13;5.40;;;4.60;79.70;;;;;;4982633;28;20049;-75
2020/12/08 05:44:59;;;;;;;7.55;4.95;;;4.60;79.70;;;;;;4992249;28;20048;-75
2020/12/08 05:47:25;;;;;;;7.40;5.32;;;4.60;79.70;;;;;;5000005;28;20042;-75
2020/12/08 05:50:00;;;;;;;7.75;5.35;;;4.60;79.70;;;;;;4974136;28;20077;-76
2020/12/08 05:52:34;;;;;;;7.88;5.63;;;4.60;79.70;;;;;;4975837;28;20026;-78
2020/12/08 05:55:12;;;;;;;8.18;5.90;;;4.60;79.80;;;;;;4973495;28;20136;-76
2020/12/08 05:57:39;;;;;;;7.95;5.55;;;4.60;79.80;;;;;;4994115;28;20080;-76
2020/12/08 06:00:23;;;;;;;7.43;5.38;;;4.60;79.70;;;;;;4988882;28;20181;-75
2020/12/08 06:02:50;;;;;;;7.28;5.43;;;4.60;79.80;;;;;;4980084;28;20093;-76
2020/12/08 06:05:31;;;;;;;7.43;5.25;;;4.60;79.70;;;;;;4984226;28;20031;-76
2020/12/08 06:07:58;;;;;;;7.07;5.07;;;4.60;79.80;;;;;;4968952;28;20425;-76
2020/12/08 06:10:24;;;;;;;7.60;5.82;;;4.60;79.80;;;;;;4987948;28;20027;-75
2020/12/08 06:13:00;;;;;;;7.78;5.63;;;4.60;79.80;;;;;;4990879;28;20026;-75
2020/12/08 06:15:38;;;;;;;7.60;5.20;;;4.50;79.80;;;;;;4971091;28;20065;-76
2020/12/08 06:18:03;;;;;;;7.85;5.38;;;4.50;79.80;;;;;;4974330;28;20035;-75
2020/12/08 06:20:29;;;;;;;8.60;5.97;;;4.50;79.80;;;;;;4981195;28;20441;-76
2020/12/08 06:22:59;;;;;;;8.07;5.70;;;4.50;79.80;;;;;;4972426;28;20107;-75
2020/12/08 06:25:25;;;;;;;9.25;6.28;;;4.50;79.80;;;;;;4990292;28;20037;-76
2020/12/08 06:28:04;;;;;;;7.40;5.30;;;4.50;79.80;;;;;;4997109;28;20034;-73
2020/12/08 06:30:30;;;;;;;7.55;5.43;;;4.60;79.90;;;;;;4989918;28;20071;-74
2020/12/08 06:32:55;;;;;;;7.60;5.55;;;4.50;79.80;;;;;;4981319;28;20034;-73
2020/12/08 06:35:21;;;;;;;7.55;5.63;;;4.50;79.80;;;;;;4983007;28;20459;-74
2020/12/08 06:37:50;;;;;;;7.78;5.55;;;4.60;79.90;;;;;;4980575;28;20117;-74
2020/12/08 06:40:18;;;;;;;7.50;5.60;;;4.50;79.80;;;;;;4986776;28;20030;-75
2020/12/08 06:42:46;;;;;;;7.13;5.32;;;4.50;79.90;;;;;;4979096;28;20042;-74
2020/12/08 06:45:16;;;;;;;8.38;5.57;;;4.50;79.90;;;;;;4979464;28;20464;-76
2020/12/08 06:47:43;;;;;;;7.40;5.50;;;4.50;79.90;;;;;;4981906;28;20081;-76
2020/12/08 06:50:23;;;;;;;8.00;5.93;;;4.50;79.90;;;;;;4990126;28;20018;-76
2020/12/08 06:52:59;;;;;;;7.50;5.55;;;4.50;79.90;;;;;;4975566;28;20045;-76
2020/12/08 06:55:26;;;;;;;8.90;5.70;;;4.50;79.90;;;;;;4984141;28;20482;-76
2020/12/08 06:57:53;;;;;;;6.88;5.18;;;4.50;80.50;;;;;;4983889;28;21175;-75
2020/12/08 07:00:19;;;;;;;8.63;5.88;;;4.50;79.90;;;;;;4987134;28;20029;-75
2020/12/08 07:02:51;;;;;;;9.05;6.18;;;4.50;79.90;;;;;;4973535;28;20113;-76
2020/12/08 07:05:22;;;;;;;7.70;5.85;;;4.50;79.90;;;;;;4980698;28;20035;-76
2020/12/08 07:07:49;;;;;;;8.77;5.82;;;4.60;80.00;;;;;;4975263;28;20106;-75
2020/12/08 07:10:19;;;;;;;7.95;5.75;;;4.50;79.90;;;;;;4979548;28;20035;-76
2020/12/08 07:12:48;;;;;;;7.88;5.57;;;4.50;80.00;;;;;;4972483;28;20035;-75
2020/12/08 07:15:20;;;;;;;8.30;6.20;;;4.50;80.00;;;;;;4972708;28;20037;-76
2020/12/08 07:18:13;;;;;;;7.90;6.05;;;4.50;80.00;;;;;;4981993;28;20058;-76
2020/12/08 07:20:40;;;;;;;8.80;6.20;;;4.50;80.00;;;;;;4980143;28;20482;-76
2020/12/08 07:23:08;;;;;;;7.90;5.68;;;4.50;79.90;;;;;;4973560;28;20037;-76
2020/12/08 07:25:35;;;;;;;7.57;5.72;;;4.50;80.00;;;;;;4989767;28;20027;-76
2020/12/08 07:28:02;;;;;;;7.65;5.57;;;4.50;80.00;;;;;;4981841;28;20033;-82
2020/12/08 07:30:30;;;;;;;8.68;5.85;;;4.50;80.00;;;;;;4989787;28;20550;-75
2020/12/08 07:33:07;;;;;;;8.68;6.28;;;4.60;80.00;;;;;;4973017;28;20122;-78
2020/12/08 07:35:36;;;;;;;8.52;6.40;;;4.50;80.00;;;;;;4987427;28;20026;-76
2020/12/08 07:38:02;;;;;;;8.48;6.10;;;4.50;80.00;;;;;;4969517;28;20090;-76
2020/12/08 07:40:36;;;;;;;8.45;6.15;;;4.50;80.00;;;;;;4980318;28;20070;-77
2020/12/08 07:43:03;;;;;;;8.60;6.03;;;4.50;80.00;;;;;;4985678;28;20078;-76
2020/12/08 07:45:30;;;;;;;7.75;5.82;;;4.60;80.00;;;;;;4978689;28;20118;-76
2020/12/08 07:47:58;;;;;;;8.23;6.18;;;4.50;80.00;;;;;;4974541;28;20062;-75
2020/12/08 07:50:29;;;;;;;7.18;5.60;;;4.50;80.00;;;;;;4981464;28;20027;-76
2020/12/08 07:53:03;;;;;;;7.47;5.68;;;4.60;80.10;;;;;;4983295;28;20474;-77
2020/12/08 07:55:36;;;;;;;8.98;6.65;;;4.60;80.10;;;;;;4993817;28;20014;-77
2020/12/08 07:58:02;;;;;;;7.57;5.72;;;4.60;80.00;;;;;;4992552;28;20500;-76
2020/12/08 08:00:28;;;;;;;8.48;6.18;;;4.60;80.10;;;;;;4982013;28;20062;-76
2020/12/08 08:02:54;;;;;;;8.02;6.03;;;4.60;80.10;;;;;;4983045;28;20054;-76
2020/12/08 08:05:19;;;;;;;7.60;5.32;;;4.60;80.10;;;;;;4993168;28;20121;-76
2020/12/08 08:07:45;;;;;;;8.75;6.05;;;4.60;80.10;;;;;;4971221;28;20496;-76
2020/12/08 08:10:11;;;;;;;7.72;5.57;;;4.60;80.10;;;;;;4985646;28;20113;-76
2020/12/08 08:12:37;;;;;;;8.57;5.63;;;4.60;80.10;;;;;;4985736;28;20402;-77
2020/12/08 08:15:06;;;;;;;9.63;6.80;;;4.60;80.10;;;;;;4980576;28;20120;-76
2020/12/08 08:17:31;;;;;;;9.07;6.70;;;4.60;80.10;;;;;;4987674;28;20402;-78
2020/12/08 08:19:57;;;;;;;8.90;6.25;;;4.60;80.10;;;;;;4987222;28;20039;-76
2020/12/08 08:22:23;;;;;;;8.55;6.50;;;4.60;80.10;;;;;;4988582;28;20042;-76
2020/12/08 08:24:49;;;;;;;7.38;5.80;;;4.60;80.10;;;;;;4987862;28;20106;-76
2020/12/08 08:27:15;;;;;;;7.88;5.70;;;4.60;80.10;;;;;;4988569;28;20176;-77
2020/12/08 08:29:41;;;;;;;8.90;6.20;;;4.60;80.10;;;;;;4976185;28;20122;-78
2020/12/08 08:32:06;;;;;;;8.23;6.00;;;4.70;80.10;;;;;;4985895;28;20030;-78
2020/12/08 08:34:32;;;;;;;8.60;6.18;;;4.70;80.20;;;;;;4979681;28;20431;-77
2020/12/08 08:36:58;;;;;;;8.35;6.25;;;4.70;80.10;;;;;;4982034;28;20122;-76
2020/12/08 08:39:24;;;;;;;9.23;6.75;;;4.70;80.10;;;;;;4985024;28;20110;-75
2020/12/08 08:41:54;;;;;;;7.97;5.88;;;4.70;80.10;;;;;;4982934;28;20026;-76
2020/12/08 08:44:19;;;;;;;9.45;6.18;;;4.70;80.20;;;;;;4981470;28;20431;-76
2020/12/08 08:46:45;;;;;;;7.85;5.90;;;4.70;80.10;;;;;;4974125;28;20051;-76
2020/12/08 08:49:14;;;;;;;8.30;5.72;;;4.70;80.10;;;;;;4987931;28;20028;-75
2020/12/08 08:51:45;;;;;;;9.40;6.70;;;4.70;80.10;;;;;;4983801;28;20038;-76
2020/12/08 08:54:12;;;;;;;8.05;6.47;;;4.70;80.10;;;;;;4999076;28;20035;-75
2020/12/08 08:56:38;;;;;;;7.88;6.00;;;4.70;80.20;;;;;;4987223;28;20043;-76
2020/12/08 08:59:04;;;;;;;8.98;6.13;;;4.70;80.10;;;;;;4992333;28;20218;-75
2020/12/08 09:01:31;;;;;;;8.25;6.03;;;4.70;80.10;;;;;;5006813;28;20234;-76
2020/12/08 09:03:57;;;;;;;7.90;5.85;;;4.70;80.20;;;;;;4994229;28;20050;-76
2020/12/08 09:06:23;;;;;;;8.45;6.35;;;4.70;80.10;;;;;;4980510;28;20408;-75
2020/12/08 09:08:49;;;;;;;9.48;6.85;;;4.70;80.10;;;;;;4982876;28;20549;-76
2020/12/08 09:11:15;;;;;;;9.05;6.72;;;4.70;80.10;;;;;;4980987;28;20039;-76
2020/12/08 09:13:40;;;;;;;7.93;5.63;;;4.70;80.10;;;;;;4984711;28;20030;-75
2020/12/08 09:16:07;;;;;;;9.15;6.38;;;4.80;80.20;;;;;;4977293;28;20114;-76
2020/12/08 09:18:32;;;;;;;8.63;5.90;;;4.80;80.20;;;;;;4980602;28;20039;-76
2020/12/08 09:20:58;;;;;;;9.13;6.32;;;4.80;80.20;;;;;;4975129;28;20378;-76
2020/12/08 09:23:24;;;;;;;8.35;5.90;;;4.80;80.20;;;;;;4996925;28;20023;-75
2020/12/08 09:25:51;;;;;;;8.57;6.18;;;4.80;80.20;;;;;;4974956;28;20027;-75
2020/12/08 09:28:17;;;;;;;9.25;6.40;;;4.80;80.20;;;;;;4976624;28;20486;-76
2020/12/08 09:30:42;;;;;;;8.93;6.28;;;4.80;80.20;;;;;;4984906;28;20035;-75
2020/12/08 09:33:08;;;;;;;9.00;6.47;;;4.80;80.20;;;;;;4975153;28;20026;-75
2020/12/08 09:35:34;;;;;;;9.13;6.05;;;4.80;80.20;;;;;;4977816;28;20041;-76
2020/12/08 09:37:59;;;;;;;8.63;5.93;;;4.90;80.20;;;;;;4979593;28;20043;-75
2020/12/08 09:40:25;;;;;;;8.98;6.55;;;4.80;80.20;;;;;;4985095;28;20040;-75
2020/12/08 09:42:51;;;;;;;9.30;6.07;;;4.90;80.20;;;;;;4984758;28;20059;-76
2020/12/08 09:45:16;;;;;;;8.48;6.43;;;4.80;80.20;;;;;;4983683;28;20449;-78
2020/12/08 09:47:42;;;;;;;8.77;6.35;;;4.90;80.20;;;;;;4980147;28;20538;-76
2020/12/08 09:50:09;;;;;;;9.40;6.78;;;4.90;80.20;;;;;;4982881;28;20426;-76
2020/12/08 09:52:39;;;;;;;8.80;6.53;;;4.90;80.20;;;;;;4981528;28;20030;-75
2020/12/08 09:55:05;;;;;;;9.05;6.50;;;4.90;80.20;;;;;;4974881;28;20045;-75
2020/12/08 09:57:31;;;;;;;8.35;6.15;;;4.90;80.20;;;;;;4987002;28;20030;-75
2020/12/08 09:59:57;;;;;;;9.82;6.32;;;4.90;80.20;;;;;;4990663;28;20126;-76
2020/12/08 10:02:23;;;;;;;8.50;6.43;;;4.90;80.20;;;;;;4977690;28;20486;-75
2020/12/08 10:04:52;;;;;;;9.38;6.53;;;4.90;80.20;;;;;;4975432;28;20649;-75
2020/12/08 10:07:19;;;;;;;8.45;6.30;;;5.00;80.30;;;;;;4977411;28;20066;-78
2020/12/08 10:09:48;;;;;;;8.95;6.75;;;5.00;80.30;;;;;;4978636;28;20023;-76
2020/12/08 10:12:15;;;;;;;8.88;6.28;;;5.00;80.30;;;;;;4979460;28;20106;-75
2020/12/08 10:14:42;;;;;;;8.05;6.18;;;5.00;80.30;;;;;;4987604;28;20065;-76
2020/12/08 10:17:09;;;;;;;8.48;6.53;;;5.00;80.30;;;;;;4987829;28;20037;-75
2020/12/08 10:19:34;;;;;;;9.02;6.57;;;5.00;80.30;;;;;;4991473;28;20030;-78
2020/12/08 10:22:00;;;;;;;9.23;6.55;;;5.00;80.20;;;;;;4964531;28;20049;-75
2020/12/08 10:24:26;;;;;;;7.90;5.72;;;5.10;80.30;;;;;;4998387;28;20030;-75
2020/12/08 10:26:52;;;;;;;8.50;6.35;;;5.10;80.30;;;;;;4999782;28;20122;-75
2020/12/08 10:29:19;;;;;;;8.35;6.15;;;5.10;80.30;;;;;;4956613;28;20097;-76
2020/12/08 10:31:45;;;;;;;8.95;6.68;;;5.10;80.30;;;;;;4972224;28;20073;-77
2020/12/08 10:34:11;;;;;;;9.80;6.45;;;5.10;80.30;;;;;;4958008;28;20084;-75
2020/12/08 10:36:37;;;;;;;9.05;6.65;;;5.10;80.30;;;;;;4987003;28;20433;-76
2020/12/08 10:39:04;;;;;;;9.35;6.95;;;5.10;80.30;;;;;;4980555;28;20086;-76
2020/12/08 10:41:31;;;;;;;9.15;6.10;;;5.20;80.30;;;;;;4979494;28;20031;-76
2020/12/08 10:43:56;;;;;;;9.30;6.65;;;5.20;80.30;;;;;;4986990;28;20030;-76
2020/12/08 10:46:22;;;;;;;9.60;7.20;;;5.20;80.30;;;;;;4992803;28;20087;-75
2020/12/08 10:48:50;;;;;;;8.55;6.68;;;5.20;80.30;;;;;;4970630;28;20042;-75
2020/12/08 10:51:23;;;;;;;8.77;6.35;;;5.30;80.40;;;;;;4987836;28;20031;-76
2020/12/08 10:53:49;;;;;;;9.40;6.72;;;5.30;80.40;;;;;;4975432;28;20034;-76
2020/12/08 10:56:20;;;;;;;8.98;6.28;;;5.30;80.40;;;;;;4966184;28;20034;-78
2020/12/08 10:58:47;;;;;;;9.23;6.85;;;5.30;80.40;;;;;;4971320;28;20034;-76
2020/12/08 11:01:26;;;;;;;9.65;6.90;;;5.40;80.40;;;;;;4974564;28;20118;-76
2020/12/08 11:03:54;;;;;;;9.30;6.65;;;5.40;80.50;;;;;;4982802;28;20059;-76
2020/12/08 11:06:29;;;;;;;10.07;6.32;;;5.40;80.40;;;;;;4987301;28;20137;-76
2020/12/08 11:08:56;;;;;;;8.55;6.38;;;5.40;80.40;;;;;;4984479;28;20374;-76
2020/12/08 11:11:30;;;;;;;9.05;6.30;;;5.40;80.30;;;;;;4989832;28;20085;-76
2020/12/08 11:13:57;;;;;;;9.35;6.60;;;5.40;80.40;;;;;;4963159;28;20126;-78
2020/12/08 11:16:24;;;;;;;8.32;6.20;;;5.50;80.40;;;;;;5001923;28;20052;-76
2020/12/08 11:18:50;;;;;;;8.82;6.35;;;5.50;80.40;;;;;;4992879;28;20039;-76
2020/12/08 11:21:25;;;;;;;8.75;6.60;;;5.50;80.40;;;;;;5000937;28;20030;-76
2020/12/08 11:23:51;;;;;;;8.30;5.85;;;5.50;80.40;;;;;;4982413;28;20034;-78
2020/12/08 11:26:17;;;;;;;8.38;6.28;;;5.60;80.40;;;;;;4974802;28;20042;-76
2020/12/08 11:28:43;;;;;;;9.70;7.25;;;5.60;80.40;;;;;;4966860;28;20027;-77
2020/12/08 11:31:08;;;;;;;8.38;6.10;;;5.60;80.40;;;;;;4977792;28;20039;-76
2020/12/08 11:33:34;;;;;;;8.80;6.28;;;5.70;80.40;;;;;;4988676;28;20451;-76
2020/12/08 11:36:00;;;;;;;8.95;6.47;;;5.70;80.40;;;;;;4989130;28;20137;-78
2020/12/08 11:38:27;;;;;;;9.30;6.53;;;5.70;80.40;;;;;;4981671;28;20073;-76
2020/12/08 11:40:53;;;;;;;8.60;6.20;;;5.70;80.40;;;;;;4987246;28;20117;-76
2020/12/08 11:43:19;;;;;;;9.30;7.22;;;5.70;80.40;;;;;;4984526;28;20525;-77
2020/12/08 11:45:46;;;;;;;8.52;6.68;;;5.80;80.50;;;;;;4986187;28;20034;-80
2020/12/08 11:48:12;;;;;;;8.73;6.47;;;5.80;80.40;;;;;;4986445;28;20085;-76
2020/12/08 11:50:38;;;;;;;7.82;5.82;;;5.80;80.40;;;;;;4960198;28;20053;-76
2020/12/08 11:53:04;;;;;;;8.57;6.35;;;5.90;80.40;;;;;;4985407;28;20073;-76
2020/12/08 11:55:30;;;;;;;8.32;6.05;;;5.80;80.40;;;;;;4973989;28;20050;-76
2020/12/08 11:57:56;;;;;;;8.73;6.75;;;5.90;80.40;;;;;;4962913;28;20081;-76
2020/12/08 12:00:22;;;;;;;9.38;6.35;;;5.90;80.40;;;;;;4993777;28;20397;-76
2020/12/08 12:02:47;;;;;;;7.95;5.80;;;5.90;80.40;;;;;;4963594;28;20034;-75
2020/12/08 12:05:13;;;;;;;8.73;6.25;;;5.90;80.40;;;;;;4977549;28;20070;-75
2020/12/08 12:07:39;;;;;;;8.32;6.38;;;6.00;80.40;;;;;;4987568;28;20042;-76
2020/12/08 12:10:06;;;;;;;9.10;6.50;;;6.00;80.40;;;;;;4972430;28;20023;-76
2020/12/08 12:12:32;;;;;;;9.55;6.43;;;6.00;80.40;;;;;;4992421;28;20494;-77
2020/12/08 12:14:57;;;;;;;9.13;6.78;;;6.00;80.40;;;;;;4990850;28;20038;-76
2020/12/08 12:17:23;;;;;;;9.63;6.78;;;6.10;80.50;;;;;;4990847;28;20038;-75
2020/12/08 12:19:49;;;;;;;9.18;6.85;;;6.10;80.40;;;;;;4995171;28;20033;-76
2020/12/08 12:22:15;;;;;;;8.85;6.15;;;6.00;80.40;;;;;;4963041;28;20050;-76
2020/12/08 12:24:40;;;;;;;9.00;6.53;;;6.10;80.50;;;;;;4981513;28;20449;-75
2020/12/08 12:27:07;;;;;;;8.32;6.15;;;6.10;80.40;;;;;;4984080;28;20034;-75
2020/12/08 12:29:32;;;;;;;7.30;5.38;;;6.10;80.50;;;;;;4987839;28;20027;-76
2020/12/08 12:31:58;;;;;;;8.48;5.93;;;6.10;80.40;;;;;;4982040;28;20023;-76
2020/12/08 12:34:24;;;;;;;8.75;6.45;;;6.10;80.40;;;;;;4980578;28;20062;-76
2020/12/08 12:36:50;;;;;;;8.88;6.43;;;6.20;81.10;;;;;;4991906;28;20036;-76
2020/12/08 12:39:17;;;;;;;8.70;6.05;;;6.10;80.40;;;;;;4979341;28;20049;-76
2020/12/08 12:41:43;;;;;;;9.70;6.35;;;6.20;80.50;;;;;;4978072;28;20131;-80
2020/12/08 12:44:09;;;;;;;9.43;6.60;;;6.20;80.40;;;;;;4990864;28;20458;-76
2020/12/08 12:46:36;;;;;;;9.18;6.78;;;6.20;80.50;;;;;;4984709;28;20038;-78
2020/12/08 12:49:02;;;;;;;8.63;6.40;;;6.20;80.40;;;;;;4989313;28;20027;-77
2020/12/08 12:51:30;;;;;;;9.20;6.82;;;6.20;80.40;;;;;;4982108;28;20026;-77
2020/12/08 12:53:56;;;;;;;8.15;5.85;;;6.30;80.40;;;;;;4976988;28;20046;-76
2020/12/08 12:56:24;;;;;;;8.07;6.00;;;6.30;80.40;;;;;;4975765;28;20035;-76
2020/12/08 12:58:50;;;;;;;8.90;6.40;;;6.30;80.40;;;;;;4976147;28;20035;-77
2020/12/08 13:01:16;;;;;;;8.35;6.05;;;6.30;80.30;;;;;;4982842;28;20383;-76